Time;durP1;ratioP1;P1;durP2;ratioP2;P2;SDS_P1;SDS_P2;PMS_P1;PMS_P2;Temp;Humidity;BMP_temperature;BMP_pressure;BME280_temperature;BME280_humidity;BME280_pressure;Samples;Min_cycle;Max_cycle;Signal;HPM_P1;HPM_P2
2022/07/25 04:05:31;;;;;;;7.80;7.00;;;19.90;99.90;;;;;;5053279;22;20508;-65
2022/07/25 04:07:57;;;;;;;7.63;6.97;;;19.90;99.90;;;;;;5015185;28;20761;-65
2022/07/25 04:10:23;;;;;;;7.73;6.70;;;20.00;99.90;;;;;;5015251;28;20182;-66
2022/07/25 04:12:48;;;;;;;7.90;7.10;;;20.00;99.90;;;;;;5015278;28;20175;-66
2022/07/25 04:15:15;;;;;;;8.93;7.00;;;20.00;99.90;;;;;;5015165;28;20731;-66
2022/07/25 04:17:41;;;;;;;7.33;6.60;;;19.90;99.90;;;;;;5015053;28;20222;-66
2022/07/25 04:20:07;;;;;;;8.50;7.57;;;19.90;99.90;;;;;;5008214;28;20428;-65
2022/07/25 04:22:32;;;;;;;7.80;7.00;;;19.90;99.90;;;;;;4994970;28;20263;-64
2022/07/25 04:24:58;;;;;;;9.90;7.40;;;20.00;99.90;;;;;;4995280;28;20912;-65
2022/07/25 04:27:24;;;;;;;9.97;7.90;;;20.10;99.90;;;;;;4995269;28;20249;-65
2022/07/25 04:29:49;;;;;;;8.87;7.50;;;20.20;99.90;;;;;;4995299;28;20182;-65
2022/07/25 04:32:15;;;;;;;10.03;8.00;;;20.20;99.90;;;;;;4994602;28;20170;-65
2022/07/25 04:34:42;;;;;;;8.57;7.50;;;20.30;99.90;;;;;;4993770;28;20193;-65
2022/07/25 04:37:08;;;;;;;8.77;7.20;;;20.30;99.90;;;;;;5002873;28;20449;-64
2022/07/25 04:39:33;;;;;;;11.13;7.57;;;20.40;99.90;;;;;;5014825;28;20810;-65
2022/07/25 04:41:59;;;;;;;9.87;7.77;;;20.60;99.90;;;;;;5014682;28;20184;-66
2022/07/25 04:44:25;;;;;;;9.30;7.13;;;20.80;99.90;;;;;;5014002;28;20206;-65
2022/07/25 04:46:50;;;;;;;8.67;7.70;;;21.00;99.90;;;;;;5014719;28;20660;-65
2022/07/25 04:49:16;;;;;;;7.50;6.70;;;21.20;99.90;;;;;;5014296;28;20224;-65
2022/07/25 04:51:41;;;;;;;8.20;7.40;;;21.30;99.90;;;;;;5014545;28;20183;-65
2022/07/25 04:54:08;;;;;;;9.33;7.47;;;21.40;99.90;;;;;;5013985;28;20234;-65
2022/07/25 04:56:33;;;;;;;10.33;8.10;;;21.60;99.90;;;;;;5014299;28;20182;-67
2022/07/25 04:58:59;;;;;;;7.33;6.60;;;21.80;99.90;;;;;;5014177;28;20432;-66
2022/07/25 05:01:24;;;;;;;7.70;7.00;;;22.00;99.90;;;;;;5012448;28;20257;-67
2022/07/25 05:03:50;;;;;;;8.00;7.20;;;22.20;99.90;;;;;;5011669;28;20206;-67
2022/07/25 05:06:16;;;;;;;8.77;6.53;;;22.30;99.90;;;;;;5012063;28;20194;-67
2022/07/25 05:08:42;;;;;;;8.43;7.60;;;22.50;99.90;;;;;;5012149;28;20180;-66
2022/07/25 05:11:07;;;;;;;8.70;7.80;;;22.60;99.90;;;;;;5012204;28;20759;-65
2022/07/25 05:13:33;;;;;;;9.50;7.60;;;22.70;99.90;;;;;;5004624;28;20201;-65
2022/07/25 05:15:59;;;;;;;9.57;8.13;;;22.80;99.90;;;;;;4993386;28;20546;-66
2022/07/25 05:18:24;;;;;;;8.63;7.80;;;22.90;99.90;;;;;;4994077;28;20541;-65
2022/07/25 05:20:50;;;;;;;10.03;9.00;;;23.00;99.90;;;;;;4994441;28;20196;-66
2022/07/25 05:23:15;;;;;;;12.10;8.60;;;23.00;99.90;;;;;;4993814;28;20178;-65
2022/07/25 05:25:41;;;;;;;10.27;8.70;;;23.10;99.90;;;;;;4994462;28;20199;-66
2022/07/25 05:28:06;;;;;;;8.77;7.87;;;23.20;99.90;;;;;;4994530;28;20633;-66
2022/07/25 05:30:32;;;;;;;8.23;7.43;;;23.20;99.90;;;;;;4993855;28;20172;-65
2022/07/25 05:32:58;;;;;;;9.83;8.80;;;23.30;99.90;;;;;;4993131;28;20611;-65
2022/07/25 05:35:24;;;;;;;9.33;8.43;;;23.30;99.90;;;;;;4994247;28;20455;-65
2022/07/25 05:37:49;;;;;;;10.97;9.03;;;23.40;99.90;;;;;;4994190;28;20237;-65
2022/07/25 05:40:17;;;;;;;11.20;8.90;;;23.40;99.90;;;;;;4994102;28;20181;-64
2022/07/25 05:42:42;;;;;;;10.00;7.80;;;23.40;99.90;;;;;;5004105;28;20202;-65
2022/07/25 05:45:08;;;;;;;9.60;7.70;;;23.50;99.90;;;;;;5000831;28;20411;-65
2022/07/25 05:47:34;;;;;;;10.70;8.03;;;23.40;99.90;;;;;;5003795;28;20725;-65
2022/07/25 05:50:00;;;;;;;8.13;7.30;;;23.50;99.90;;;;;;4998770;28;20439;-65
2022/07/25 05:52:26;;;;;;;9.10;7.13;;;23.60;99.90;;;;;;5007073;28;20181;-66
2022/07/25 05:54:51;;;;;;;7.20;6.50;;;23.70;99.90;;;;;;4997722;28;20199;-65
2022/07/25 05:57:17;;;;;;;9.70;7.43;;;23.80;99.90;;;;;;5004244;28;20207;-65
2022/07/25 05:59:43;;;;;;;8.10;7.30;;;23.90;99.90;;;;;;4993925;28;20178;-65
2022/07/25 06:02:08;;;;;;;8.43;7.63;;;23.90;99.90;;;;;;5011876;28;20212;-65
2022/07/25 06:04:34;;;;;;;8.17;7.33;;;24.00;99.90;;;;;;5014079;28;20699;-65
2022/07/25 06:07:00;;;;;;;8.50;7.70;;;24.00;99.90;;;;;;5022899;28;20218;-65
2022/07/25 06:09:25;;;;;;;8.97;7.80;;;24.10;99.90;;;;;;5017939;28;20171;-63
2022/07/25 06:11:51;;;;;;;7.13;6.53;;;24.20;99.90;;;;;;5014029;28;20183;-64
2022/07/25 06:14:17;;;;;;;8.57;7.27;;;24.20;99.90;;;;;;5006489;28;20257;-63
2022/07/25 06:16:42;;;;;;;7.47;6.70;;;24.40;99.90;;;;;;4994713;28;20658;-65
2022/07/25 06:19:08;;;;;;;7.40;6.80;;;24.50;99.90;;;;;;4994477;28;20297;-64
2022/07/25 06:21:34;;;;;;;7.83;7.03;;;24.60;99.90;;;;;;4993860;28;20180;-63
2022/07/25 06:24:00;;;;;;;8.63;7.00;;;24.80;99.90;;;;;;4994301;28;20674;-63
2022/07/25 06:26:26;;;;;;;7.07;6.43;;;24.80;99.90;;;;;;4993428;28;20175;-64
2022/07/25 06:28:51;;;;;;;6.93;6.17;;;24.90;99.90;;;;;;4993745;28;20176;-64
2022/07/25 06:31:17;;;;;;;8.10;6.50;;;25.00;99.90;;;;;;5004957;28;20807;-64
2022/07/25 06:33:43;;;;;;;7.80;7.10;;;25.10;99.90;;;;;;5012597;28;20629;-63
2022/07/25 06:36:09;;;;;;;8.80;7.93;;;25.10;99.90;;;;;;5012967;28;20187;-63
2022/07/25 06:38:34;;;;;;;8.00;6.97;;;25.20;99.90;;;;;;5011821;28;20198;-64
2022/07/25 06:41:00;;;;;;;8.73;6.30;;;25.30;99.90;;;;;;5012815;28;20505;-63
2022/07/25 06:43:26;;;;;;;9.43;7.10;;;25.50;99.90;;;;;;5014483;28;20219;-63
2022/07/25 06:45:51;;;;;;;7.50;6.90;;;25.70;99.90;;;;;;5016455;28;20221;-64
2022/07/25 06:48:17;;;;;;;8.53;7.67;;;25.90;99.20;;;;;;5016663;28;20171;-63
2022/07/25 06:50:43;;;;;;;7.90;7.17;;;26.10;99.40;;;;;;5010818;28;20184;-64
2022/07/25 06:53:09;;;;;;;7.73;6.93;;;26.30;98.90;;;;;;4996586;28;20568;-64
2022/07/25 06:55:35;;;;;;;7.57;6.87;;;26.50;98.30;;;;;;4997185;28;20415;-63
2022/07/25 06:58:00;;;;;;;7.67;6.90;;;26.80;98.20;;;;;;4997022;28;20219;-64
2022/07/25 07:00:26;;;;;;;8.67;7.77;;;26.90;97.00;;;;;;4996814;28;20418;-64
2022/07/25 07:02:55;;;;;;;6.90;6.20;;;27.00;96.00;;;;;;4996531;28;20169;-64
2022/07/25 07:05:22;;;;;;;8.50;7.70;;;27.10;96.00;;;;;;4997609;28;20212;-64
2022/07/25 07:07:48;;;;;;;6.60;6.00;;;27.30;95.70;;;;;;4996976;28;20389;-64
2022/07/25 07:10:13;;;;;;;6.73;6.13;;;27.40;95.20;;;;;;4996938;28;20487;-64
2022/07/25 07:12:39;;;;;;;7.43;6.43;;;27.60;94.10;;;;;;4996444;28;20272;-64
2022/07/25 07:15:05;;;;;;;8.03;7.23;;;27.70;93.10;;;;;;4996754;28;20518;-64
2022/07/25 07:17:31;;;;;;;7.20;6.50;;;27.80;92.70;;;;;;4996726;28;20239;-65
2022/07/25 07:19:56;;;;;;;7.70;6.87;;;28.00;92.30;;;;;;5003044;28;20444;-64
2022/07/25 07:22:22;;;;;;;9.40;7.53;;;28.10;92.10;;;;;;5015839;28;20184;-64
2022/07/25 07:24:47;;;;;;;7.50;6.80;;;28.10;92.90;;;;;;5016159;28;20224;-64
2022/07/25 07:27:13;;;;;;;6.90;6.30;;;28.10;92.90;;;;;;5016175;28;20709;-64
2022/07/25 07:29:39;;;;;;;6.30;5.70;;;28.20;93.00;;;;;;5016055;28;20181;-64
2022/07/25 07:32:05;;;;;;;7.80;7.20;;;28.40;92.60;;;;;;5016098;28;20527;-64
2022/07/25 07:34:31;;;;;;;7.40;6.70;;;28.70;92.70;;;;;;5009956;28;20648;-64
2022/07/25 07:36:57;;;;;;;7.50;6.80;;;28.90;91.10;;;;;;4996648;28;20527;-64
2022/07/25 07:39:22;;;;;;;6.77;6.17;;;29.30;90.50;;;;;;4996275;28;20215;-64
2022/07/25 07:41:48;;;;;;;7.77;6.97;;;29.70;89.80;;;;;;4996329;28;20321;-64
2022/07/25 07:44:14;;;;;;;7.40;6.67;;;30.10;88.50;;;;;;4995682;28;20690;-64
2022/07/25 07:46:39;;;;;;;6.93;6.40;;;30.60;85.50;;;;;;4996290;28;20172;-64
2022/07/25 07:49:05;;;;;;;7.10;6.47;;;31.40;83.80;;;;;;4999615;28;20185;-64
2022/07/25 07:51:30;;;;;;;7.83;7.13;;;32.50;80.60;;;;;;5015890;28;20187;-64
2022/07/25 07:56:40;;;;;;;7.47;6.87;;;35.00;71.70;;;;;;5015841;28;20181;-65
2022/07/25 07:59:06;;;;;;;7.40;6.80;;;36.30;66.50;;;;;;5015467;28;20564;-64
2022/07/25 08:01:32;;;;;;;7.40;6.80;;;37.30;64.30;;;;;;5015610;28;20426;-65
2022/07/25 08:03:58;;;;;;;7.07;6.43;;;38.20;60.80;;;;;;5009527;28;20235;-65
2022/07/25 08:06:24;;;;;;;7.37;6.87;;;39.20;58.30;;;;;;4995722;28;20474;-63
2022/07/25 08:08:49;;;;;;;8.07;7.40;;;40.10;57.10;;;;;;4995869;28;20214;-65
2022/07/25 08:11:15;;;;;;;7.07;6.53;;;40.80;55.70;;;;;;4995632;28;20233;-65
2022/07/25 08:13:40;;;;;;;6.97;6.47;;;41.30;54.20;;;;;;4995150;28;20195;-65
2022/07/25 08:16:06;;;;;;;7.67;7.17;;;41.90;53.40;;;;;;4995445;28;20194;-64
2022/07/25 08:18:33;;;;;;;8.27;7.67;;;42.50;52.30;;;;;;4998899;28;20242;-64
2022/07/25 08:21:02;;;;;;;7.80;7.20;;;42.90;51.60;;;;;;5013478;28;20464;-63
2022/07/25 08:23:30;;;;;;;7.93;7.43;;;43.00;50.50;;;;;;5014556;28;20544;-63
2022/07/25 08:25:56;;;;;;;7.87;7.23;;;42.40;49.80;;;;;;5015056;28;20793;-63
2022/07/25 08:28:21;;;;;;;7.60;7.00;;;41.70;51.50;;;;;;5015071;28;20410;-63
2022/07/25 08:30:47;;;;;;;8.10;7.40;;;41.80;52.00;;;;;;5013233;28;20229;-64
2022/07/25 08:33:14;;;;;;;8.60;7.97;;;42.10;51.40;;;;;;5001003;28;20184;-64
2022/07/25 08:35:50;;;;;;;8.23;7.63;;;42.70;50.30;;;;;;4995314;28;20214;-64
2022/07/25 08:38:17;;;;;;;8.47;7.87;;;43.00;49.10;;;;;;4994910;28;20466;-64
2022/07/25 08:40:43;;;;;;;7.23;6.83;;;43.40;49.30;;;;;;4995232;28;20406;-64
2022/07/25 08:43:12;;;;;;;8.43;7.83;;;43.90;48.10;;;;;;4994581;28;20735;-64
2022/07/25 08:45:49;;;;;;;8.90;8.40;;;44.40;47.40;;;;;;4995137;28;20425;-64
2022/07/25 08:48:21;;;;;;;8.37;7.77;;;44.80;46.60;;;;;;4995107;28;20770;-64
2022/07/25 08:50:47;;;;;;;8.07;7.47;;;45.10;46.50;;;;;;4996295;28;20403;-64
2022/07/25 08:53:16;;;;;;;8.73;8.13;;;45.30;45.60;;;;;;5014004;28;20405;-64
2022/07/25 08:55:44;;;;;;;8.37;7.87;;;45.40;45.30;;;;;;5014622;28;20885;-64
2022/07/25 08:58:11;;;;;;;8.70;8.10;;;45.40;46.00;;;;;;5014299;28;20507;-64
2022/07/25 09:00:37;;;;;;;10.43;9.73;;;45.50;45.30;;;;;;5014391;28;20421;-64
2022/07/25 09:03:05;;;;;;;8.70;8.20;;;45.50;45.30;;;;;;5013858;28;20409;-64
2022/07/25 09:05:31;;;;;;;8.47;7.97;;;45.60;43.90;;;;;;5012270;28;20194;-64
2022/07/25 09:08:04;;;;;;;8.33;7.83;;;45.90;43.20;;;;;;4994941;28;20506;-64
2022/07/25 09:10:30;;;;;;;9.33;8.63;;;45.20;43.90;;;;;;4995909;28;20918;-63
2022/07/25 09:13:06;;;;;;;9.10;8.50;;;45.10;44.90;;;;;;4994267;28;20426;-64
2022/07/25 09:15:37;;;;;;;8.98;8.10;;;45.40;44.20;;;;;;4994770;28;20178;-64
2022/07/25 09:18:07;;;;;;;7.93;7.43;;;45.30;42.80;;;;;;4994557;28;20205;-64
2022/07/25 09:20:44;;;;;;;8.88;8.25;;;44.90;43.30;;;;;;4997739;28;20171;-64
2022/07/25 09:23:11;;;;;;;9.60;8.93;;;44.70;43.60;;;;;;5013592;28;20178;-64
2022/07/25 09:25:37;;;;;;;9.30;8.70;;;44.50;44.40;;;;;;5014190;28;20190;-64
2022/07/25 09:28:29;;;;;;;8.43;8.00;;;45.00;44.00;;;;;;5013835;28;20244;-64
2022/07/25 09:30:57;;;;;;;9.70;8.90;;;45.60;43.40;;;;;;5012511;28;20198;-64
2022/07/25 09:33:24;;;;;;;9.23;8.53;;;45.90;43.10;;;;;;4996229;28;20199;-64
2022/07/25 09:35:50;;;;;;;9.10;8.50;;;46.20;42.70;;;;;;4994332;28;20590;-64
2022/07/25 09:38:17;;;;;;;9.03;8.50;;;46.10;42.90;;;;;;4994108;28;20550;-64
2022/07/25 09:41:00;;;;;;;8.80;8.23;;;46.10;42.80;;;;;;4994144;28;20171;-64
2022/07/25 09:43:42;;;;;;;9.93;9.30;;;45.70;43.00;;;;;;4993928;28;20201;-64
2022/07/25 09:46:09;;;;;;;9.77;9.10;;;45.00;43.30;;;;;;4994760;28;20438;-64
2022/07/25 09:48:36;;;;;;;9.17;8.50;;;44.70;43.50;;;;;;5013551;28;20417;-64
2022/07/25 09:51:02;;;;;;;8.27;7.70;;;44.60;43.60;;;;;;5013487;28;20414;-64
2022/07/25 09:53:28;;;;;;;9.00;8.50;;;44.60;43.20;;;;;;5013136;28;20439;-64
2022/07/25 09:55:55;;;;;;;9.07;8.47;;;44.80;43.30;;;;;;5009727;28;20510;-64
2022/07/25 09:58:26;;;;;;;8.97;8.37;;;45.10;42.80;;;;;;4993853;28;20268;-65
2022/07/25 10:01:00;;;;;;;10.00;9.30;;;45.20;42.80;;;;;;4994082;28;20450;-65
2022/07/25 10:03:51;;;;;;;9.35;8.85;;;45.50;42.50;;;;;;4993626;28;20418;-64
2022/07/25 10:06:38;;;;;;;9.77;9.27;;;46.00;42.00;;;;;;4993845;28;20195;-65
2022/07/25 10:09:10;;;;;;;9.30;8.80;;;46.30;41.40;;;;;;4993853;28;20169;-65
2022/07/25 10:11:36;;;;;;;8.88;8.38;;;46.50;39.90;;;;;;5005065;28;20182;-65
2022/07/25 10:14:11;;;;;;;9.38;8.77;;;46.60;39.60;;;;;;5012825;28;20236;-65
2022/07/25 10:16:47;;;;;;;9.60;8.95;;;46.40;39.10;;;;;;5013299;28;20633;-65
2022/07/25 10:19:13;;;;;;;9.30;8.80;;;46.10;40.20;;;;;;5015483;28;20212;-65
2022/07/25 10:21:39;;;;;;;9.18;8.68;;;46.00;39.70;;;;;;5017346;28;20182;-65
2022/07/25 10:24:07;;;;;;;8.27;7.78;;;45.90;39.60;;;;;;4997768;28;20673;-65
2022/07/25 10:26:41;;;;;;;8.57;8.07;;;45.60;39.90;;;;;;4997673;28;20214;-65
2022/07/25 10:29:09;;;;;;;8.02;7.53;;;45.40;40.00;;;;;;4997840;28;20171;-65
2022/07/25 10:31:39;;;;;;;8.20;7.70;;;45.10;39.70;;;;;;4997422;28;20305;-64
2022/07/25 10:34:08;;;;;;;8.07;7.57;;;44.90;39.80;;;;;;4996888;28;20202;-65
2022/07/25 10:37:09;;;;;;;7.87;7.37;;;45.20;39.10;;;;;;4997506;28;20484;-64
2022/07/25 10:39:40;;;;;;;8.50;7.90;;;45.40;38.50;;;;;;5017003;28;20777;-64
2022/07/25 10:42:06;;;;;;;7.93;7.33;;;45.30;39.70;;;;;;5016813;28;20432;-64
2022/07/25 10:44:47;;;;;;;7.87;7.23;;;44.80;40.50;;;;;;5016728;28;21003;-64
2022/07/25 10:47:14;;;;;;;8.33;7.73;;;44.50;41.20;;;;;;5016786;28;20408;-64
2022/07/25 10:49:42;;;;;;;9.30;8.50;;;44.50;41.40;;;;;;5016624;28;20766;-64
2022/07/25 10:52:14;;;;;;;8.30;7.60;;;44.50;41.00;;;;;;4999618;28;20436;-64
2022/07/25 10:54:40;;;;;;;7.40;6.83;;;44.40;40.20;;;;;;4997127;28;20426;-64
2022/07/25 10:57:13;;;;;;;8.13;7.63;;;43.90;39.80;;;;;;5009437;28;20924;-64
2022/07/25 10:59:40;;;;;;;7.80;7.30;;;44.10;39.50;;;;;;5003906;28;20182;-64
2022/07/25 11:02:08;;;;;;;8.60;7.53;;;44.20;39.30;;;;;;4996984;28;20402;-64
2022/07/25 11:04:35;;;;;;;7.03;6.53;;;44.10;40.60;;;;;;4996756;28;20775;-63
2022/07/25 11:07:12;;;;;;;7.50;6.93;;;44.10;40.40;;;;;;4996558;28;20438;-64
2022/07/25 11:09:38;;;;;;;6.90;6.50;;;44.10;40.40;;;;;;4999516;28;20433;-66
2022/07/25 11:12:04;;;;;;;7.83;7.33;;;44.10;40.20;;;;;;4996728;28;20438;-63
2022/07/25 11:14:31;;;;;;;7.20;6.70;;;43.80;39.20;;;;;;4996139;28;20938;-64
2022/07/25 11:17:08;;;;;;;6.93;6.43;;;43.40;40.70;;;;;;4996811;28;20401;-64
2022/07/25 11:19:34;;;;;;;7.20;6.63;;;42.80;40.70;;;;;;4997604;28;20430;-63
2022/07/25 11:22:00;;;;;;;6.10;5.60;;;;;;;;;;4996519;28;20502;-63
2022/07/25 11:24:39;;;;;;;8.30;5.90;;;42.00;41.20;;;;;;4995907;28;20222;-63
2022/07/25 11:27:06;;;;;;;6.03;5.60;;;40.60;42.90;;;;;;4996512;28;20771;-64
2022/07/25 11:29:33;;;;;;;5.77;5.27;;;39.70;43.00;;;;;;4995535;28;20541;-65
2022/07/25 11:32:01;;;;;;;7.17;6.57;;;38.80;43.80;;;;;;4996355;28;20925;-64
2022/07/25 11:34:33;;;;;;;6.87;6.27;;;38.30;43.90;;;;;;5000813;28;20976;-64
2022/07/25 11:37:02;;;;;;;6.20;5.70;;;37.90;44.80;;;;;;5010846;28;20431;-63
2022/07/25 11:39:29;;;;;;;6.23;5.73;;;;;;;;;;4996394;28;20956;-64
2022/07/25 11:42:11;;;;;;;6.63;5.97;;;37.60;45.40;;;;;;4996114;28;20723;-64
2022/07/25 11:44:42;;;;;;;7.00;6.40;;;36.90;45.80;;;;;;4996284;28;20798;-65
2022/07/25 11:47:21;;;;;;;6.27;5.77;;;36.80;47.50;;;;;;4996211;28;20423;-65
2022/07/25 11:49:48;;;;;;;7.00;6.47;;;36.80;47.80;;;;;;5014543;28;20497;-64
2022/07/25 11:52:34;;;;;;;6.73;6.13;;;36.90;45.70;;;;;;5015298;28;20776;-64
2022/07/25 11:55:08;;;;;;;6.53;5.93;;;36.80;45.90;;;;;;5015539;28;20837;-65
2022/07/25 11:57:37;;;;;;;6.37;5.87;;;36.50;45.60;;;;;;5015432;28;20457;-65
2022/07/25 12:00:23;;;;;;;5.90;5.40;;;;;;;;;;5015379;28;20745;-64
2022/07/25 12:02:49;;;;;;;6.60;6.10;;;;;;;;;;5009878;28;20434;-64
2022/07/25 12:05:16;;;;;;;7.10;6.50;;;;;;;;;;4995475;28;20446;-68
2022/07/25 12:07:47;;;;;;;6.80;6.20;;;;;;;;;;4995600;28;20536;-68
2022/07/25 12:10:23;;;;;;;5.50;5.00;;;36.30;46.40;;;;;;4995647;28;20415;-64
2022/07/25 12:12:51;;;;;;;10.13;5.53;;;35.80;48.40;;;;;;4995358;28;20389;-65
2022/07/25 12:15:29;;;;;;;6.30;5.70;;;35.80;48.10;;;;;;4995710;28;20409;-65
2022/07/25 12:17:56;;;;;;;5.97;5.10;;;35.70;47.60;;;;;;4996586;28;20434;-65
2022/07/25 12:20:33;;;;;;;6.07;5.53;;;35.50;48.40;;;;;;4995481;28;20426;-65
2022/07/25 12:23:03;;;;;;;6.33;5.80;;;;;;;;;;4995010;28;20790;-64
2022/07/25 12:25:30;;;;;;;5.40;4.90;;;;;;;;;;4994479;28;20419;-64
2022/07/25 12:27:57;;;;;;;5.30;4.83;;;;;;;;;;5005926;28;20461;-65
2022/07/25 12:30:23;;;;;;;6.60;6.00;;;;;;;;;;5014988;28;20422;-64
2022/07/25 12:32:50;;;;;;;6.30;5.80;;;;;;;;;;5014609;28;20387;-64
2022/07/25 12:35:16;;;;;;;6.53;6.03;;;;;;;;;;5014923;28;20438;-65
2022/07/25 12:37:43;;;;;;;5.83;5.30;;;;;;;;;;5013375;28;20406;-65
2022/07/25 12:40:09;;;;;;;5.83;5.30;;;;;;;;;;5005954;28;20434;-65
2022/07/25 12:42:35;;;;;;;6.30;5.70;;;;;;;;;;4992866;28;20402;-65
2022/07/25 12:45:01;;;;;;;5.67;5.17;;;;;;;;;;4991635;28;20783;-65
2022/07/25 12:47:28;;;;;;;5.20;4.80;;;;;;;;;;4992772;28;20533;-65
2022/07/25 12:49:54;;;;;;;5.70;5.20;;;;;;;;;;4992893;28;20411;-65
2022/07/25 12:52:20;;;;;;;5.90;5.33;;;;;;;;;;4993121;28;20390;-65
2022/07/25 12:54:46;;;;;;;4.93;4.53;;;;;;;;;;5011313;28;20944;-65
2022/07/25 12:57:13;;;;;;;5.30;4.90;;;;;;;;;;5014329;28;20402;-65
2022/07/25 12:59:39;;;;;;;4.93;4.50;;;;;;;;;;5014451;28;20830;-63
2022/07/25 13:02:05;;;;;;;5.37;4.97;;;;;;;;;;5014113;28;20476;-64
2022/07/25 13:04:32;;;;;;;5.93;4.50;;;;;;;;;;5013874;28;20426;-65
2022/07/25 13:06:58;;;;;;;5.40;4.90;;;;;;;;;;5014037;28;20910;-65
2022/07/25 13:09:25;;;;;;;5.97;5.47;;;;;;;;;;4997408;28;20817;-65
2022/07/25 13:11:52;;;;;;;5.67;5.17;;;;;;;;;;4994286;28;20415;-65
2022/07/25 13:14:18;;;;;;;5.40;4.90;;;;;;;;;;4993996;28;20435;-66
2022/07/25 13:16:45;;;;;;;5.53;5.03;;;;;;;;;;4994442;28;20390;-65
2022/07/25 13:19:11;;;;;;;4.53;4.23;;;35.60;47.00;;;;;;4994331;28;20490;-65
2022/07/25 13:21:37;;;;;;;5.70;5.20;;;35.40;50.50;;;;;;4994495;28;20468;-65
2022/07/25 13:24:03;;;;;;;6.00;5.50;;;35.70;50.20;;;;;;5008919;28;20207;-65
2022/07/25 13:26:30;;;;;;;6.00;5.50;;;35.80;49.30;;;;;;5013896;28;20435;-65
2022/07/25 13:28:56;;;;;;;5.50;5.10;;;35.80;48.20;;;;;;5013704;28;20548;-65
2022/07/25 13:31:23;;;;;;;5.80;5.00;;;35.80;48.30;;;;;;5013896;28;20408;-65
2022/07/25 13:33:49;;;;;;;5.63;5.13;;;35.80;48.40;;;;;;5013176;28;20817;-65
2022/07/25 13:36:15;;;;;;;5.77;5.27;;;35.80;48.50;;;;;;5013688;28;20503;-65
2022/07/25 13:38:42;;;;;;;6.17;5.67;;;35.80;48.40;;;;;;4999032;28;20439;-65
2022/07/25 13:41:08;;;;;;;6.93;6.23;;;35.60;48.60;;;;;;4994089;28;20729;-65
2022/07/25 13:43:34;;;;;;;6.20;5.70;;;35.50;49.00;;;;;;4993882;28;20401;-64
2022/07/25 13:46:00;;;;;;;12.20;10.07;;;35.50;49.60;;;;;;4992767;28;20702;-64
2022/07/25 13:48:27;;;;;;;5.90;5.30;;;35.40;50.50;;;;;;4994137;28;20814;-64
2022/07/25 13:50:53;;;;;;;6.13;5.63;;;35.50;51.00;;;;;;4997235;28;20426;-64
2022/07/25 13:53:20;;;;;;;6.47;5.87;;;35.50;50.00;;;;;;5012287;28;20416;-64
2022/07/25 13:55:46;;;;;;;5.53;5.10;;;35.50;50.10;;;;;;5013689;28;20417;-64
2022/07/25 13:58:12;;;;;;;5.70;5.20;;;35.50;50.20;;;;;;5013529;28;20525;-64
2022/07/25 14:00:37;;;;;;;6.90;6.07;;;35.50;50.20;;;;;;5013664;28;20420;-64
2022/07/25 14:03:04;;;;;;;6.60;6.00;;;35.60;50.30;;;;;;5012911;28;20193;-64
2022/07/25 14:05:30;;;;;;;6.50;5.90;;;35.50;50.10;;;;;;5010663;28;20523;-64
2022/07/25 14:07:55;;;;;;;7.37;6.30;;;35.50;50.50;;;;;;4993918;28;20466;-65
2022/07/25 14:10:21;;;;;;;6.90;6.30;;;35.50;50.70;;;;;;4993844;28;20658;-64
2022/07/25 14:12:47;;;;;;;6.00;5.50;;;35.40;50.10;;;;;;4993373;28;20183;-63
2022/07/25 14:15:13;;;;;;;6.70;6.10;;;35.30;49.80;;;;;;4993874;28;20278;-63
2022/07/25 14:17:38;;;;;;;7.93;6.33;;;35.10;50.30;;;;;;4993856;28;20187;-63
2022/07/25 14:20:05;;;;;;;6.13;5.53;;;35.00;51.10;;;;;;4994431;28;20187;-64
2022/07/25 14:22:31;;;;;;;5.53;5.03;;;34.70;49.50;;;;;;5012832;28;20178;-64
2022/07/25 14:24:57;;;;;;;7.83;7.13;;;34.70;48.90;;;;;;5013198;28;20446;-64
2022/07/25 14:27:23;;;;;;;9.07;5.57;;;34.60;49.80;;;;;;5013323;28;20187;-64
2022/07/25 14:29:48;;;;;;;6.33;5.00;;;34.70;50.40;;;;;;5013443;28;20654;-64
2022/07/25 14:32:14;;;;;;;5.90;5.23;;;34.70;50.30;;;;;;5012867;28;20395;-65
2022/07/25 14:34:39;;;;;;;7.23;6.47;;;34.70;50.70;;;;;;5012886;28;20195;-64
2022/07/25 14:37:06;;;;;;;6.17;5.57;;;34.80;51.50;;;;;;4993864;28;20242;-64
2022/07/25 14:39:32;;;;;;;6.80;6.30;;;34.80;52.30;;;;;;4993515;28;20237;-64
2022/07/25 14:41:59;;;;;;;6.83;5.73;;;34.80;52.90;;;;;;4993398;28;20442;-64
2022/07/25 14:44:27;;;;;;;6.17;5.67;;;34.80;52.80;;;;;;4992808;28;20453;-64
2022/07/25 14:46:55;;;;;;;5.90;5.30;;;34.90;52.60;;;;;;4993386;28;20429;-64
2022/07/25 14:49:21;;;;;;;6.50;5.90;;;35.00;51.80;;;;;;5002049;28;20477;-64
2022/07/25 14:51:47;;;;;;;7.17;6.47;;;35.00;51.00;;;;;;5013373;28;20420;-64
2022/07/25 14:54:13;;;;;;;6.80;6.20;;;35.00;51.80;;;;;;5012547;28;20429;-64
2022/07/25 14:56:39;;;;;;;6.70;6.10;;;34.90;51.60;;;;;;5013133;28;20175;-64
2022/07/25 14:59:05;;;;;;;8.00;7.20;;;34.90;52.00;;;;;;5013034;28;20433;-63
2022/07/25 15:01:31;;;;;;;6.50;5.90;;;34.90;52.10;;;;;;5001224;28;20834;-63
2022/07/25 15:03:57;;;;;;;6.30;5.80;;;34.80;52.10;;;;;;4993986;28;20768;-64
2022/07/25 15:06:23;;;;;;;6.50;5.90;;;34.80;52.00;;;;;;4996629;28;20445;-66
2022/07/25 15:08:50;;;;;;;6.70;6.10;;;34.80;52.00;;;;;;4996544;28;20204;-64
2022/07/25 15:11:16;;;;;;;7.30;6.60;;;34.70;52.00;;;;;;4997613;28;20908;-65
2022/07/25 15:13:42;;;;;;;6.80;6.27;;;34.60;53.20;;;;;;4996308;28;20879;-66
2022/07/25 15:16:09;;;;;;;6.97;6.27;;;34.60;52.80;;;;;;4996668;28;20418;-64
2022/07/25 15:18:35;;;;;;;7.17;6.40;;;34.50;52.50;;;;;;4996731;28;20392;-64
2022/07/25 15:21:01;;;;;;;7.83;7.03;;;34.50;52.70;;;;;;4996787;28;20419;-63
2022/07/25 15:23:26;;;;;;;7.40;6.80;;;34.40;52.80;;;;;;4995920;28;20435;-64
2022/07/25 15:25:54;;;;;;;6.87;6.17;;;34.40;52.40;;;;;;5004511;28;20469;-63
2022/07/25 15:28:20;;;;;;;6.80;6.20;;;34.30;52.10;;;;;;4996694;28;20209;-62
2022/07/25 15:30:47;;;;;;;6.30;5.80;;;34.20;52.60;;;;;;4996354;28;20834;-64
2022/07/25 15:33:13;;;;;;;7.33;6.73;;;34.00;52.50;;;;;;4995941;28;20411;-64
2022/07/25 15:35:39;;;;;;;8.37;6.30;;;33.90;53.10;;;;;;4996169;28;20392;-65
2022/07/25 15:38:05;;;;;;;6.70;6.07;;;33.90;53.30;;;;;;4996094;28;20506;-64
2022/07/25 15:40:31;;;;;;;7.00;6.30;;;33.90;53.90;;;;;;4996473;28;20944;-64
2022/07/25 15:42:58;;;;;;;11.57;6.57;;;33.80;54.40;;;;;;4995920;28;20659;-65
2022/07/25 15:45:24;;;;;;;6.07;5.47;;;33.50;54.90;;;;;;4995997;28;20227;-65
2022/07/25 15:47:52;;;;;;;6.57;6.03;;;33.20;55.20;;;;;;4996080;28;20509;-66
2022/07/25 15:50:18;;;;;;;7.67;5.50;;;33.10;56.20;;;;;;5011773;28;20535;-65
2022/07/25 15:52:45;;;;;;;6.10;5.60;;;32.90;56.30;;;;;;5013708;28;20431;-63
2022/07/25 15:55:10;;;;;;;5.97;5.47;;;32.70;57.00;;;;;;5013984;28;20437;-64
2022/07/25 15:57:36;;;;;;;10.50;6.70;;;32.50;57.10;;;;;;5015062;28;20395;-68
2022/07/25 16:00:04;;;;;;;6.13;5.63;;;32.20;57.40;;;;;;5000828;28;20513;-68
2022/07/25 16:02:30;;;;;;;5.70;5.20;;;32.00;58.20;;;;;;4996280;28;20179;-65
2022/07/25 16:04:56;;;;;;;5.80;5.30;;;31.70;58.40;;;;;;4997262;28;20791;-67
2022/07/25 16:07:21;;;;;;;7.87;7.10;;;31.50;58.90;;;;;;4998429;28;20183;-64
2022/07/25 16:09:48;;;;;;;5.60;5.10;;;31.30;59.50;;;;;;4996840;28;20707;-67
2022/07/25 16:12:14;;;;;;;6.20;5.20;;;31.10;60.10;;;;;;4995814;28;20517;-65
2022/07/25 16:14:40;;;;;;;6.00;5.47;;;31.00;60.20;;;;;;4997260;28;20828;-69
2022/07/25 16:17:06;;;;;;;7.13;6.30;;;31.00;61.20;;;;;;4997325;28;20420;-68
2022/07/25 16:19:32;;;;;;;6.70;5.67;;;30.90;61.20;;;;;;5015126;28;20721;-68
2022/07/25 16:21:58;;;;;;;6.07;5.40;;;30.80;61.50;;;;;;4999912;28;20430;-64
2022/07/25 16:24:24;;;;;;;5.97;5.40;;;30.80;61.60;;;;;;5014749;28;20420;-63
2022/07/25 16:26:50;;;;;;;5.90;5.30;;;30.80;61.70;;;;;;5014681;28;20578;-65
2022/07/25 16:29:16;;;;;;;5.67;5.20;;;30.70;62.30;;;;;;4996499;28;20184;-67
2022/07/25 16:31:42;;;;;;;5.60;5.10;;;30.60;62.40;;;;;;5008610;28;20438;-68
2022/07/25 16:34:08;;;;;;;5.80;5.20;;;30.60;62.60;;;;;;5003847;28;20214;-64
2022/07/25 16:36:34;;;;;;;5.90;5.30;;;30.60;60.70;;;;;;5003185;28;20423;-67
2022/07/25 16:39:01;;;;;;;5.67;5.17;;;30.70;60.40;;;;;;4995009;28;20250;-63
2022/07/25 16:41:27;;;;;;;6.00;5.47;;;30.70;60.30;;;;;;4995077;28;20438;-65
2022/07/25 16:43:52;;;;;;;6.17;5.67;;;30.90;60.10;;;;;;4993399;28;20452;-70
2022/07/25 16:46:18;;;;;;;6.00;5.50;;;31.00;59.40;;;;;;5003390;28;20185;-68
2022/07/25 16:48:44;;;;;;;6.50;5.90;;;31.10;58.90;;;;;;5014855;28;20651;-67
2022/07/25 16:51:09;;;;;;;5.43;5.00;;;31.20;58.60;;;;;;5013811;28;20656;-67
2022/07/25 16:53:35;;;;;;;7.17;6.47;;;31.20;58.30;;;;;;5014044;28;20198;-66
2022/07/25 16:56:01;;;;;;;5.40;4.90;;;31.30;58.20;;;;;;5007996;28;20180;-67
2022/07/25 16:58:26;;;;;;;5.13;4.63;;;31.30;58.00;;;;;;4994674;28;20207;-66
2022/07/25 17:00:52;;;;;;;7.30;4.90;;;31.30;57.50;;;;;;4994926;28;20180;-69
2022/07/25 17:03:18;;;;;;;4.97;4.47;;;31.20;57.60;;;;;;4994010;28;20687;-64